createdAt,value
2023-02-18T00:02:18.398Z,3.42
2023-02-18T00:05:22.047Z,2.67
2023-02-18T00:08:24.749Z,2.95
2023-02-18T00:11:29.365Z,1.80
2023-02-18T00:14:31.983Z,1.00
2023-02-18T00:17:35.068Z,2.00
2023-02-18T00:20:39.686Z,2.10
2023-02-18T00:23:44.106Z,1.58
2023-02-18T00:26:46.981Z,1.80
2023-02-18T00:29:50.065Z,1.50
2023-02-18T00:32:52.709Z,1.92
2023-02-18T00:36:02.491Z,1.55
2023-02-18T00:39:08.458Z,2.47
2023-02-18T00:42:11.597Z,1.60
2023-02-18T00:45:14.419Z,1.30
2023-02-18T00:48:17.386Z,1.50
2023-02-18T00:51:20.748Z,0.82
2023-02-18T00:54:24.049Z,1.30
2023-02-18T00:57:26.808Z,1.17
2023-02-18T01:00:29.855Z,1.00
2023-02-18T01:03:32.836Z,1.40
2023-02-18T01:06:35.983Z,1.00
2023-02-18T01:09:38.782Z,0.80
2023-02-18T01:12:43.026Z,0.83
2023-02-18T01:15:46.813Z,0.80
2023-02-18T01:18:49.792Z,0.80
2023-02-18T01:21:52.588Z,1.00
2023-02-18T01:24:55.841Z,0.70
2023-02-18T01:27:58.693Z,1.00
2023-02-18T01:31:07.513Z,0.90
2023-02-18T01:34:10.253Z,0.88
2023-02-18T01:37:13.895Z,0.80
2023-02-18T01:40:19.435Z,1.02
2023-02-18T01:43:23.142Z,0.70
2023-02-18T01:46:25.982Z,1.03
2023-02-18T01:49:33.167Z,0.60
2023-02-18T01:52:36.049Z,0.90
2023-02-18T01:55:39.495Z,1.00
2023-02-18T01:58:43.680Z,0.80
2023-02-18T02:01:47.338Z,0.83
2023-02-18T02:04:51.016Z,0.80
2023-02-18T02:07:55.242Z,1.12
2023-02-18T02:11:18.057Z,0.70
2023-02-18T02:14:41.942Z,0.60
2023-02-18T02:18:26.665Z,0.83
2023-02-18T02:21:54.089Z,0.95
2023-02-18T02:25:10.687Z,0.57
2023-02-18T02:28:34.751Z,0.70
2023-02-18T02:32:10.743Z,0.60
2023-02-18T02:35:37.249Z,0.70
2023-02-18T02:38:53.559Z,0.70
2023-02-18T02:42:19.484Z,1.55
2023-02-18T02:45:29.369Z,0.60
2023-02-18T02:49:05.884Z,0.60
2023-02-18T02:52:16.166Z,1.10
2023-02-18T02:55:19.761Z,0.80
2023-02-18T02:58:23.942Z,0.90
2023-02-18T03:02:01.426Z,0.85
2023-02-18T03:05:42.193Z,0.83
2023-02-18T03:08:56.536Z,1.00
2023-02-18T03:12:06.742Z,0.90
2023-02-18T03:15:21.974Z,0.98
2023-02-18T03:18:36.033Z,0.98
2023-02-18T03:21:52.462Z,0.93
2023-02-18T03:24:57.869Z,1.00
2023-02-18T03:28:05.918Z,0.73
2023-02-18T03:31:21.505Z,0.80
2023-02-18T03:34:29.384Z,0.50
2023-02-18T03:37:39.349Z,1.10
2023-02-18T03:40:42.280Z,1.07
2023-02-18T03:44:00.818Z,1.65
2023-02-18T03:47:03.739Z,1.17
2023-02-18T03:50:07.829Z,1.00
2023-02-18T03:53:10.815Z,1.30
2023-02-18T03:56:14.380Z,1.40
2023-02-18T03:59:17.196Z,1.60
2023-02-18T04:02:20.281Z,1.17
2023-02-18T04:05:23.379Z,1.33
2023-02-18T04:08:26.395Z,1.37
2023-02-18T04:11:29.408Z,1.33
2023-02-18T04:14:32.315Z,1.50
2023-02-18T04:17:35.754Z,1.08
2023-02-18T04:20:38.609Z,1.73
2023-02-18T04:23:41.720Z,1.50
2023-02-18T04:26:44.422Z,1.10
2023-02-18T04:29:47.531Z,1.58
2023-02-18T04:32:50.207Z,1.30
2023-02-18T04:35:53.296Z,0.98
2023-02-18T04:38:56.098Z,1.40
2023-02-18T04:42:01.617Z,1.17
2023-02-18T04:45:05.493Z,1.30
2023-02-18T04:48:08.698Z,1.10
2023-02-18T04:51:11.320Z,1.45
2023-02-18T04:54:14.492Z,1.40
2023-02-18T04:57:17.202Z,0.90
2023-02-18T05:00:20.862Z,0.90
2023-02-18T05:03:23.581Z,0.75
2023-02-18T05:06:26.608Z,1.17
2023-02-18T05:09:29.347Z,1.10
2023-02-18T05:12:32.533Z,0.90
2023-02-18T05:15:35.250Z,1.40
2023-02-18T05:18:38.463Z,1.27
2023-02-18T05:21:41.427Z,1.17
2023-02-18T05:24:44.505Z,1.50
2023-02-18T05:27:47.178Z,1.47
2023-02-18T05:30:50.320Z,1.20
2023-02-18T05:33:53.099Z,1.48
2023-02-18T05:36:56.167Z,1.20
2023-02-18T05:39:58.839Z,0.80
2023-02-18T05:43:01.954Z,0.60
2023-02-18T05:46:04.884Z,1.12
2023-02-18T05:49:07.920Z,0.77
2023-02-18T05:52:11.630Z,1.00
2023-02-18T05:55:14.755Z,0.97
2023-02-18T05:58:17.527Z,0.90
2023-02-18T06:01:20.652Z,0.90
2023-02-18T06:04:23.748Z,0.90
2023-02-18T06:07:26.489Z,0.98
2023-02-18T06:10:29.535Z,0.97
2023-02-18T06:13:32.371Z,1.17
2023-02-18T06:16:35.470Z,1.15
2023-02-18T06:19:38.243Z,0.98
2023-02-18T06:22:41.258Z,1.05
2023-02-18T06:25:44.252Z,1.20
2023-02-18T06:28:47.294Z,1.07
2023-02-18T06:31:50.167Z,1.20
2023-02-18T06:34:53.223Z,1.48
2023-02-18T06:37:55.948Z,1.27
2023-02-18T06:40:59.055Z,1.20
2023-02-18T06:44:01.773Z,1.40
2023-02-18T06:47:04.950Z,1.45
2023-02-18T06:50:08.201Z,1.48
2023-02-18T06:53:12.501Z,1.60
2023-02-18T06:56:15.294Z,1.33
2023-02-18T06:59:18.320Z,1.07
2023-02-18T07:02:21.137Z,1.37
2023-02-18T07:05:24.149Z,1.35
2023-02-18T07:08:27.516Z,1.15
2023-02-18T07:11:30.485Z,1.53
2023-02-18T07:14:33.358Z,1.83
2023-02-18T07:17:36.372Z,1.17
2023-02-18T07:20:39.062Z,1.45
2023-02-18T07:23:42.093Z,0.90
2023-02-18T07:26:44.835Z,1.60
2023-02-18T07:29:48.327Z,1.30
2023-02-18T07:32:51.125Z,0.90
2023-02-18T07:35:57.960Z,1.40
2023-02-18T07:39:00.715Z,0.93
2023-02-18T07:42:04.193Z,1.60
2023-02-18T07:45:09.021Z,1.07
2023-02-18T07:48:12.980Z,1.37
2023-02-18T07:51:16.020Z,0.90
2023-02-18T07:54:19.739Z,0.82
2023-02-18T07:57:22.775Z,1.00
2023-02-18T08:00:25.928Z,1.10
2023-02-18T08:03:31.446Z,1.00
2023-02-18T08:06:43.754Z,0.95
2023-02-18T08:09:46.918Z,1.05
2023-02-18T08:12:49.638Z,1.13
2023-02-18T08:15:55.539Z,0.93
2023-02-18T08:18:58.456Z,1.05
2023-02-18T08:22:03.158Z,1.12
2023-02-18T08:25:07.396Z,2.12
2023-02-18T08:28:10.495Z,0.93
2023-02-18T08:31:25.845Z,1.50
2023-02-18T08:34:29.052Z,2.40
2023-02-18T08:37:53.479Z,2.20
2023-02-18T08:41:03.280Z,1.80
2023-02-18T08:44:06.058Z,1.40
2023-02-18T08:48:18.073Z,0.77
2023-02-18T08:50:31.961Z,1.15
2023-02-18T08:53:35.137Z,1.45
2023-02-18T08:56:38.093Z,1.02
2023-02-18T08:59:41.164Z,0.80
2023-02-18T09:02:44.494Z,1.17
2023-02-18T09:05:47.533Z,1.20
2023-02-18T09:08:50.769Z,1.12
2023-02-18T09:11:53.851Z,1.05
2023-02-18T09:14:56.807Z,1.40
2023-02-18T09:18:00.145Z,1.10
2023-02-18T09:21:04.417Z,1.40
2023-02-18T09:24:08.213Z,1.00
2023-02-18T09:27:11.405Z,1.25
2023-02-18T09:30:14.872Z,1.40
2023-02-18T09:33:19.091Z,1.50
2023-02-18T09:36:22.369Z,1.92
2023-02-18T09:39:25.120Z,1.75
2023-02-18T09:42:33.466Z,1.73
2023-02-18T09:45:36.213Z,1.70
2023-02-18T09:48:49.666Z,2.37
2023-02-18T09:51:54.709Z,2.28
2023-02-18T09:54:58.692Z,1.60
2023-02-18T09:58:05.848Z,1.80
2023-02-18T10:01:37.930Z,2.30
2023-02-18T10:04:45.081Z,3.03
2023-02-18T10:07:51.925Z,2.00
2023-02-18T10:10:55.119Z,2.35
2023-02-18T10:14:01.390Z,2.45
2023-02-18T10:17:05.856Z,2.17
2023-02-18T10:20:12.441Z,2.10
2023-02-18T10:23:16.767Z,2.20
2023-02-18T10:26:20.542Z,2.90
2023-02-18T10:29:25.416Z,7.37
2023-02-18T10:32:35.237Z,8.67
2023-02-18T10:35:50.704Z,3.63
2023-02-18T10:39:02.606Z,2.95
2023-02-18T10:42:25.197Z,2.00
2023-02-18T10:46:06.068Z,1.58
2023-02-18T10:49:44.387Z,2.40
2023-02-18T10:52:50.787Z,2.07
2023-02-18T10:55:56.918Z,1.73
2023-02-18T10:59:09.856Z,1.70
2023-02-18T11:02:19.712Z,1.70
2023-02-18T11:05:27.612Z,2.10
2023-02-18T11:08:42.750Z,2.67
2023-02-18T11:11:50.659Z,2.67
2023-02-18T11:15:14.868Z,2.58
2023-02-18T11:18:26.867Z,2.03
2023-02-18T11:21:37.318Z,2.23
2023-02-18T11:24:40.199Z,2.20
2023-02-18T11:27:52.493Z,2.67
2023-02-18T11:31:00.147Z,2.12
2023-02-18T11:34:04.924Z,0.80
2023-02-18T11:37:11.363Z,1.30
2023-02-18T11:40:28.627Z,1.13
2023-02-18T11:43:31.804Z,0.80
2023-02-18T11:46:35.263Z,0.55
2023-02-18T11:49:38.079Z,0.77
2023-02-18T11:52:49.389Z,0.70
2023-02-18T11:55:59.220Z,0.60
2023-02-18T11:59:04.108Z,0.60
2023-02-18T12:02:09.774Z,0.68
2023-02-18T12:05:25.153Z,0.52
2023-02-18T12:08:32.220Z,0.90
2023-02-18T12:11:43.084Z,0.80
2023-02-18T12:14:46.125Z,0.82
2023-02-18T12:18:11.191Z,1.00
2023-02-18T12:21:36.242Z,0.50
2023-02-18T12:25:01.321Z,0.50
2023-02-18T12:28:42.014Z,0.60
2023-02-18T12:32:05.944Z,0.70
2023-02-18T12:35:14.690Z,0.85
2023-02-18T12:38:42.446Z,0.60
2023-02-18T12:42:19.996Z,0.97
2023-02-18T12:45:25.875Z,0.40
2023-02-18T12:49:23.134Z,0.90
2023-02-18T12:52:42.396Z,0.88
2023-02-18T12:56:04.009Z,1.10
2023-02-18T12:59:44.275Z,1.07
2023-02-18T13:03:31.852Z,0.90
2023-02-18T13:07:07.530Z,0.77
2023-02-18T13:10:35.132Z,0.65
2023-02-18T13:13:45.163Z,0.80
2023-02-18T13:16:52.777Z,0.60
2023-02-18T13:19:59.982Z,0.77
2023-02-18T13:23:04.227Z,0.82
2023-02-18T13:26:12.024Z,1.20
2023-02-18T13:29:33.557Z,0.95
2023-02-18T13:33:04.217Z,1.30
2023-02-18T13:36:14.309Z,1.07
2023-02-18T13:39:21.345Z,0.60
2023-02-18T13:42:30.426Z,1.52
2023-02-18T13:45:34.206Z,1.10
2023-02-18T13:48:50.829Z,0.70
2023-02-18T13:51:58.195Z,0.60
2023-02-18T13:55:01.234Z,1.20
2023-02-18T13:58:04.487Z,0.50
2023-02-18T14:01:16.118Z,0.88
2023-02-18T14:04:41.251Z,1.60
2023-02-18T14:07:52.762Z,0.90
2023-02-18T14:11:32.566Z,0.52
2023-02-18T14:14:39.210Z,0.60
2023-02-18T14:17:44.372Z,1.58
2023-02-18T14:20:52.434Z,0.93
2023-02-18T14:23:58.042Z,0.83
2023-02-18T14:27:14.886Z,0.75
2023-02-18T14:30:23.886Z,0.88
2023-02-18T14:33:30.884Z,0.77
2023-02-18T14:36:39.704Z,3.20
2023-02-18T14:40:08.898Z,1.50
2023-02-18T14:43:38.757Z,0.95
2023-02-18T14:46:57.420Z,1.27
2023-02-18T14:50:06.758Z,1.42
2023-02-18T14:53:19.069Z,2.43
2023-02-18T14:56:25.786Z,2.43
2023-02-18T14:59:57.948Z,1.25
2023-02-18T15:03:02.846Z,0.90
2023-02-18T15:06:25.662Z,1.10
2023-02-18T15:09:30.087Z,0.93
2023-02-18T15:12:34.049Z,1.70
2023-02-18T15:15:37.776Z,1.70
2023-02-18T15:18:44.145Z,1.70
2023-02-18T15:21:50.944Z,3.22
2023-02-18T15:24:56.073Z,3.70
2023-02-18T15:28:00.472Z,4.90
2023-02-18T15:31:13.258Z,4.53
2023-02-18T15:34:40.322Z,7.15
2023-02-18T15:37:46.604Z,7.10
2023-02-18T15:40:55.202Z,19.47
2023-02-18T15:44:04.918Z,15.63
2023-02-18T15:47:11.772Z,13.75
2023-02-18T15:50:26.775Z,14.15
2023-02-18T15:53:31.147Z,13.90
2023-02-18T15:56:38.387Z,10.93
2023-02-18T15:59:57.823Z,8.90
2023-02-18T16:03:16.409Z,8.73
2023-02-18T16:06:24.597Z,9.70
2023-02-18T16:09:32.497Z,8.40
2023-02-18T16:12:40.529Z,8.40
2023-02-18T16:15:46.447Z,9.97
2023-02-18T16:18:49.963Z,10.80
2023-02-18T16:21:52.792Z,8.18
2023-02-18T16:25:00.691Z,10.30
2023-02-18T16:28:28.296Z,13.87
2023-02-18T16:31:32.170Z,14.60
2023-02-18T16:34:36.092Z,19.25
2023-02-18T16:37:39.548Z,18.27
2023-02-18T16:40:43.283Z,14.48
2023-02-18T16:43:51.023Z,14.33
2023-02-18T16:46:55.715Z,14.10
2023-02-18T16:49:59.420Z,13.38
2023-02-18T16:53:02.833Z,12.48
2023-02-18T16:56:08.851Z,12.65
2023-02-18T16:59:11.945Z,15.30
2023-02-18T17:02:21.525Z,14.17
2023-02-18T17:05:28.915Z,13.10
2023-02-18T17:08:32.737Z,15.13
2023-02-18T17:11:36.239Z,15.68
2023-02-18T17:14:40.185Z,15.83
2023-02-18T17:17:43.670Z,16.50
2023-02-18T17:20:52.151Z,14.45
2023-02-18T17:23:56.203Z,13.57
2023-02-18T17:27:00.128Z,13.02
2023-02-18T17:30:03.996Z,16.07
2023-02-18T17:33:12.443Z,16.90
2023-02-18T17:36:16.205Z,15.93
2023-02-18T17:39:21.973Z,15.75
2023-02-18T17:42:26.310Z,18.10
2023-02-18T17:45:42.595Z,18.83
2023-02-18T17:48:47.723Z,18.73
2023-02-18T17:51:53.207Z,16.40
2023-02-18T17:54:57.901Z,17.85
2023-02-18T17:58:02.003Z,18.25
2023-02-18T18:01:06.311Z,19.07
2023-02-18T18:04:18.765Z,19.07
2023-02-18T18:07:22.688Z,21.77
2023-02-18T18:10:31.442Z,22.85
2023-02-18T18:13:35.062Z,17.30
2023-02-18T18:16:39.578Z,20.73
2023-02-18T18:19:43.418Z,17.20
2023-02-18T18:22:47.439Z,22.48
2023-02-18T18:25:59.095Z,21.52
2023-02-18T18:29:03.579Z,20.17
2023-02-18T18:32:07.059Z,23.57
2023-02-18T18:35:22.130Z,17.83
2023-02-18T18:38:27.985Z,13.93
2023-02-18T18:41:31.957Z,22.25
2023-02-18T18:44:38.020Z,24.65
2023-02-18T18:47:42.244Z,22.67
2023-02-18T18:50:46.649Z,23.17
2023-02-18T18:53:51.179Z,20.60
2023-02-18T18:56:55.656Z,19.30
2023-02-18T19:00:01.867Z,20.90
2023-02-18T19:03:08.126Z,22.37
2023-02-18T19:06:14.861Z,21.37
2023-02-18T19:09:18.923Z,21.30
2023-02-18T19:12:23.579Z,17.80
2023-02-18T19:15:28.109Z,21.05
2023-02-18T19:18:34.295Z,23.00
2023-02-18T19:21:38.018Z,21.43
2023-02-18T19:24:44.029Z,22.23
2023-02-18T19:27:51.472Z,19.02
2023-02-18T19:30:57.362Z,24.17
2023-02-18T19:34:03.838Z,23.40
2023-02-18T19:37:08.485Z,23.43
2023-02-18T19:40:18.265Z,23.85
2023-02-18T19:43:23.272Z,23.42
2023-02-18T19:46:27.098Z,22.77
2023-02-18T19:49:32.762Z,22.57
2023-02-18T19:52:37.750Z,23.43
2023-02-18T19:55:42.173Z,22.27
2023-02-18T19:58:45.884Z,24.15
2023-02-18T20:01:50.199Z,23.08
2023-02-18T20:04:58.096Z,25.37
2023-02-18T20:08:02.073Z,23.23
2023-02-18T20:11:23.815Z,21.98
2023-02-18T20:14:29.600Z,20.75
2023-02-18T20:17:33.880Z,23.80
2023-02-18T20:20:37.813Z,25.70
2023-02-18T20:23:41.621Z,24.80
2023-02-18T20:26:46.437Z,21.48
2023-02-18T20:29:52.222Z,18.17
2023-02-18T20:32:57.470Z,17.98
2023-02-18T20:36:03.557Z,18.83
2023-02-18T20:39:16.137Z,19.60
2023-02-18T20:42:20.361Z,15.57
2023-02-18T20:45:27.935Z,15.65
2023-02-18T20:48:31.886Z,18.33
2023-02-18T20:51:40.468Z,20.73
2023-02-18T20:54:44.583Z,18.40
2023-02-18T20:57:49.159Z,18.87
2023-02-18T21:00:58.797Z,18.37
2023-02-18T21:04:04.973Z,15.82
2023-02-18T21:07:08.296Z,19.37
2023-02-18T21:10:13.068Z,15.90
2023-02-18T21:13:17.214Z,16.20
2023-02-18T21:16:22.580Z,15.43
2023-02-18T21:19:27.698Z,15.10
2023-02-18T21:22:32.427Z,17.07
2023-02-18T21:25:37.213Z,15.17
2023-02-18T21:28:41.969Z,13.65
2023-02-18T21:31:45.433Z,10.95
2023-02-18T21:34:49.569Z,9.32
2023-02-18T21:37:52.989Z,10.47
2023-02-18T21:40:57.005Z,11.67
2023-02-18T21:44:00.374Z,10.93
2023-02-18T21:47:04.610Z,11.32
2023-02-18T21:50:08.376Z,10.32
2023-02-18T21:53:12.389Z,9.87
2023-02-18T21:56:15.951Z,10.97
2023-02-18T21:59:21.314Z,9.27
2023-02-18T22:02:32.671Z,8.95
2023-02-18T22:05:43.476Z,9.35
2023-02-18T22:08:46.900Z,10.13
2023-02-18T22:11:50.300Z,10.00
2023-02-18T22:14:53.162Z,9.45
2023-02-18T22:17:56.339Z,10.15
2023-02-18T22:20:59.564Z,7.45
2023-02-18T22:24:04.986Z,9.03
2023-02-18T22:27:07.815Z,6.90
2023-02-18T22:30:11.453Z,6.62
2023-02-18T22:33:14.132Z,7.18
2023-02-18T22:36:19.186Z,5.68
2023-02-18T22:39:21.939Z,4.77
2023-02-18T22:42:25.019Z,3.07
2023-02-18T22:45:27.895Z,5.15
2023-02-18T22:48:32.990Z,3.70
2023-02-18T22:51:38.794Z,4.45
2023-02-18T22:54:41.995Z,5.30
2023-02-18T22:57:44.694Z,3.90
2023-02-18T23:00:47.816Z,5.07
2023-02-18T23:03:51.735Z,5.12
2023-02-18T23:06:56.196Z,4.05
2023-02-18T23:09:59.581Z,5.83
2023-02-18T23:13:02.649Z,5.10
2023-02-18T23:16:09.730Z,5.28
2023-02-18T23:19:13.182Z,4.70
2023-02-18T23:22:27.016Z,5.65
2023-02-18T23:25:30.277Z,6.20
2023-02-18T23:28:47.776Z,6.20
2023-02-18T23:31:50.842Z,6.05
2023-02-18T23:34:53.679Z,4.75
2023-02-18T23:38:05.995Z,5.30
2023-02-18T23:41:09.505Z,5.77
2023-02-18T23:44:16.143Z,5.30
2023-02-18T23:47:18.820Z,5.10
2023-02-18T23:50:21.923Z,4.00
2023-02-18T23:53:31.733Z,3.35
2023-02-18T23:56:35.142Z,2.73
2023-02-18T23:59:37.926Z,2.70
